sensor_id;sensor_type;location;lat;lon;timestamp;pressure;altitude;pressure_sealevel;temperature
24201;BMP280;2801;50.972;7.856;2023-10-08T00:01:18;98231.75;;;18.03
24201;BMP280;2801;50.972;7.856;2023-10-08T00:03:46;98218.53;;;18.02
24201;BMP280;2801;50.972;7.856;2023-10-08T00:06:20;98218.88;;;18.00
24201;BMP280;2801;50.972;7.856;2023-10-08T00:08:50;98223.53;;;18.00
24201;BMP280;2801;50.972;7.856;2023-10-08T00:11:18;98222.41;;;18.01
24201;BMP280;2801;50.972;7.856;2023-10-08T00:13:45;98217.31;;;17.99
24201;BMP280;2801;50.972;7.856;2023-10-08T00:16:16;98214.16;;;17.97
24201;BMP280;2801;50.972;7.856;2023-10-08T00:18:44;98230.78;;;17.96
24201;BMP280;2801;50.972;7.856;2023-10-08T00:21:21;98229.56;;;17.93
24201;BMP280;2801;50.972;7.856;2023-10-08T00:23:56;98233.09;;;17.94
24201;BMP280;2801;50.972;7.856;2023-10-08T00:26:28;98243.47;;;17.92
24201;BMP280;2801;50.972;7.856;2023-10-08T00:29:02;98260.13;;;17.90
24201;BMP280;2801;50.972;7.856;2023-10-08T00:31:33;98245.31;;;17.88
24201;BMP280;2801;50.972;7.856;2023-10-08T00:34:08;98237.88;;;17.85
24201;BMP280;2801;50.972;7.856;2023-10-08T00:36:43;98240.97;;;17.83
24201;BMP280;2801;50.972;7.856;2023-10-08T00:39:12;98230.47;;;17.82
24201;BMP280;2801;50.972;7.856;2023-10-08T00:41:51;98243.50;;;17.76
24201;BMP280;2801;50.972;7.856;2023-10-08T00:44:25;98232.91;;;17.71
24201;BMP280;2801;50.972;7.856;2023-10-08T00:47:06;98240.97;;;17.68
24201;BMP280;2801;50.972;7.856;2023-10-08T00:49:33;98236.59;;;17.63
24201;BMP280;2801;50.972;7.856;2023-10-08T00:52:13;98235.38;;;17.61
24201;BMP280;2801;50.972;7.856;2023-10-08T00:54:42;98240.38;;;17.59
24201;BMP280;2801;50.972;7.856;2023-10-08T00:57:22;98238.69;;;17.54
24201;BMP280;2801;50.972;7.856;2023-10-08T00:59:50;98233.63;;;17.53
24201;BMP280;2801;50.972;7.856;2023-10-08T01:02:25;98224.59;;;17.49
24201;BMP280;2801;50.972;7.856;2023-10-08T01:04:55;98240.78;;;17.45
24201;BMP280;2801;50.972;7.856;2023-10-08T01:07:25;98232.56;;;17.42
24201;BMP280;2801;50.972;7.856;2023-10-08T01:09:52;98219.81;;;17.42
24201;BMP280;2801;50.972;7.856;2023-10-08T01:12:32;98208.25;;;17.45
24201;BMP280;2801;50.972;7.856;2023-10-08T01:15:02;98201.50;;;17.39
24201;BMP280;2801;50.972;7.856;2023-10-08T01:17:50;98210.59;;;17.31
24201;BMP280;2801;50.972;7.856;2023-10-08T01:20:29;98171.06;;;17.30
24201;BMP280;2801;50.972;7.856;2023-10-08T01:25:31;98177.25;;;17.31
24201;BMP280;2801;50.972;7.856;2023-10-08T01:27:58;98192.31;;;17.28
24201;BMP280;2801;50.972;7.856;2023-10-08T01:30:35;98212.84;;;17.29
24201;BMP280;2801;50.972;7.856;2023-10-08T01:33:09;98236.47;;;17.29
24201;BMP280;2801;50.972;7.856;2023-10-08T01:35:42;98234.88;;;17.28
24201;BMP280;2801;50.972;7.856;2023-10-08T01:38:09;98231.47;;;17.31
24201;BMP280;2801;50.972;7.856;2023-10-08T01:40:41;98232.59;;;17.30
24201;BMP280;2801;50.972;7.856;2023-10-08T01:43:09;98231.03;;;17.29
24201;BMP280;2801;50.972;7.856;2023-10-08T01:45:38;98230.69;;;17.30
24201;BMP280;2801;50.972;7.856;2023-10-08T01:48:10;98235.66;;;17.28
24201;BMP280;2801;50.972;7.856;2023-10-08T01:50:37;98222.03;;;17.25
24201;BMP280;2801;50.972;7.856;2023-10-08T01:53:05;98228.22;;;17.25
24201;BMP280;2801;50.972;7.856;2023-10-08T01:55:37;98222.03;;;17.25
24201;BMP280;2801;50.972;7.856;2023-10-08T01:58:17;98232.75;;;17.21
24201;BMP280;2801;50.972;7.856;2023-10-08T02:00:46;98252.41;;;17.18
24201;BMP280;2801;50.972;7.856;2023-10-08T02:03:15;98256.97;;;17.14
24201;BMP280;2801;50.972;7.856;2023-10-08T02:05:44;98271.56;;;17.10
24201;BMP280;2801;50.972;7.856;2023-10-08T02:08:13;98275.38;;;17.09
24201;BMP280;2801;50.972;7.856;2023-10-08T02:10:42;98281.94;;;17.08
24201;BMP280;2801;50.972;7.856;2023-10-08T02:13:10;98279.56;;;17.06
24201;BMP280;2801;50.972;7.856;2023-10-08T02:15:53;98279.56;;;17.06
24201;BMP280;2801;50.972;7.856;2023-10-08T02:18:21;98275.38;;;17.09
24201;BMP280;2801;50.972;7.856;2023-10-08T02:20:52;98266.47;;;17.08
24201;BMP280;2801;50.972;7.856;2023-10-08T02:23:19;98253.63;;;17.05
24201;BMP280;2801;50.972;7.856;2023-10-08T02:25:46;98253.50;;;17.02
24201;BMP280;2801;50.972;7.856;2023-10-08T02:28:15;98247.91;;;16.95
24201;BMP280;2801;50.972;7.856;2023-10-08T02:30:43;98260.13;;;16.89
24201;BMP280;2801;50.972;7.856;2023-10-08T02:33:10;98271.97;;;16.84
24201;BMP280;2801;50.972;7.856;2023-10-08T02:35:46;98271.88;;;16.81
24201;BMP280;2801;50.972;7.856;2023-10-08T02:38:16;98284.63;;;16.80
24201;BMP280;2801;50.972;7.856;2023-10-08T02:40:44;98289.38;;;16.83
24201;BMP280;2801;50.972;7.856;2023-10-08T02:43:15;98276.63;;;16.84
24201;BMP280;2801;50.972;7.856;2023-10-08T02:45:44;98287.13;;;16.85
24201;BMP280;2801;50.972;7.856;2023-10-08T02:48:17;98281.78;;;16.89
24201;BMP280;2801;50.972;7.856;2023-10-08T02:50:45;98291.94;;;16.92
24201;BMP280;2801;50.972;7.856;2023-10-08T02:53:12;98288.97;;;16.97
24201;BMP280;2801;50.972;7.856;2023-10-08T02:55:45;98275.09;;;16.98
24201;BMP280;2801;50.972;7.856;2023-10-08T02:58:14;98259.97;;;16.97
24201;BMP280;2801;50.972;7.856;2023-10-08T03:00:43;98276.25;;;16.97
24201;BMP280;2801;50.972;7.856;2023-10-08T03:03:15;98270.00;;;16.97
24201;BMP280;2801;50.972;7.856;2023-10-08T03:05:48;98269.94;;;16.93
24201;BMP280;2801;50.972;7.856;2023-10-08T03:08:18;98252.34;;;16.87
24201;BMP280;2801;50.972;7.856;2023-10-08T03:10:51;98242.53;;;16.83
24201;BMP280;2801;50.972;7.856;2023-10-08T03:13:29;98241.22;;;16.77
24201;BMP280;2801;50.972;7.856;2023-10-08T03:15:56;98247.56;;;16.69
24201;BMP280;2801;50.972;7.856;2023-10-08T03:18:30;98247.78;;;16.64
24201;BMP280;2801;50.972;7.856;2023-10-08T03:21:06;98230.56;;;16.56
24201;BMP280;2801;50.972;7.856;2023-10-08T03:23:51;98222.69;;;16.51
24201;BMP280;2801;50.972;7.856;2023-10-08T03:26:19;98215.13;;;16.45
24201;BMP280;2801;50.972;7.856;2023-10-08T03:29:06;98210.28;;;16.38
24201;BMP280;2801;50.972;7.856;2023-10-08T03:31:42;98194.28;;;16.33
24201;BMP280;2801;50.972;7.856;2023-10-08T03:34:17;98197.59;;;16.27
24201;BMP280;2801;50.972;7.856;2023-10-08T03:36:47;98212.34;;;16.17
24201;BMP280;2801;50.972;7.856;2023-10-08T03:39:17;98230.28;;;16.10
24201;BMP280;2801;50.972;7.856;2023-10-08T03:41:46;98251.69;;;16.03
24201;BMP280;2801;50.972;7.856;2023-10-08T03:44:33;98268.16;;;15.98
24201;BMP280;2801;50.972;7.856;2023-10-08T03:47:04;98281.56;;;15.94
24201;BMP280;2801;50.972;7.856;2023-10-08T03:49:37;98279.88;;;15.90
24201;BMP280;2801;50.972;7.856;2023-10-08T03:52:12;98299.00;;;15.85
24201;BMP280;2801;50.972;7.856;2023-10-08T03:54:42;98315.13;;;15.81
24201;BMP280;2801;50.972;7.856;2023-10-08T03:57:15;98303.97;;;15.83
24201;BMP280;2801;50.972;7.856;2023-10-08T03:59:52;98284.59;;;15.81
24201;BMP280;2801;50.972;7.856;2023-10-08T04:02:25;98259.34;;;15.77
24201;BMP280;2801;50.972;7.856;2023-10-08T04:05:08;98298.56;;;15.71
24201;BMP280;2801;50.972;7.856;2023-10-08T04:07:46;98306.78;;;15.74
24201;BMP280;2801;50.972;7.856;2023-10-08T04:10:27;98297.88;;;15.74
24201;BMP280;2801;50.972;7.856;2023-10-08T04:13:26;98303.28;;;15.74
24201;BMP280;2801;50.972;7.856;2023-10-08T04:15:53;98314.09;;;15.74
24201;BMP280;2801;50.972;7.856;2023-10-08T04:18:20;98307.13;;;15.73
24201;BMP280;2801;50.972;7.856;2023-10-08T04:20:47;98301.72;;;15.73
24201;BMP280;2801;50.972;7.856;2023-10-08T04:23:34;98298.91;;;15.69
24201;BMP280;2801;50.972;7.856;2023-10-08T04:26:05;98272.53;;;15.66
24201;BMP280;2801;50.972;7.856;2023-10-08T04:28:33;98261.38;;;15.68
24201;BMP280;2801;50.972;7.856;2023-10-08T04:31:02;98260.59;;;15.67
24201;BMP280;2801;50.972;7.856;2023-10-08T04:33:44;98257.78;;;15.64
24201;BMP280;2801;50.972;7.856;2023-10-08T04:36:12;98238.84;;;15.64
24201;BMP280;2801;50.972;7.856;2023-10-08T04:38:45;98229.63;;;15.65
24201;BMP280;2801;50.972;7.856;2023-10-08T04:41:15;98240.09;;;15.66
24201;BMP280;2801;50.972;7.856;2023-10-08T04:43:46;98221.16;;;15.66
24201;BMP280;2801;50.972;7.856;2023-10-08T04:46:16;98221.97;;;15.67
24201;BMP280;2801;50.972;7.856;2023-10-08T04:48:46;98238.06;;;15.63
24201;BMP280;2801;50.972;7.856;2023-10-08T04:51:13;98271.63;;;15.62
24201;BMP280;2801;50.972;7.856;2023-10-08T04:53:41;98286.94;;;15.58
24201;BMP280;2801;50.972;7.856;2023-10-08T04:56:12;98266.44;;;15.57
24201;BMP280;2801;50.972;7.856;2023-10-08T04:58:50;98312.72;;;15.56
24201;BMP280;2801;50.972;7.856;2023-10-08T05:01:18;98321.59;;;15.56
24201;BMP280;2801;50.972;7.856;2023-10-08T05:03:56;98318.13;;;15.56
24201;BMP280;2801;50.972;7.856;2023-10-08T05:06:24;98350.25;;;15.57
24201;BMP280;2801;50.972;7.856;2023-10-08T05:09:15;98334.47;;;15.59
24201;BMP280;2801;50.972;7.856;2023-10-08T05:11:48;98356.22;;;15.63
24201;BMP280;2801;50.972;7.856;2023-10-08T05:14:22;98333.13;;;15.65
24201;BMP280;2801;50.972;7.856;2023-10-08T05:17:04;98310.38;;;15.66
24201;BMP280;2801;50.972;7.856;2023-10-08T05:19:40;98320.06;;;15.67
24201;BMP280;2801;50.972;7.856;2023-10-08T05:22:15;98302.28;;;15.66
24201;BMP280;2801;50.972;7.856;2023-10-08T05:24:57;98303.41;;;15.65
24201;BMP280;2801;50.972;7.856;2023-10-08T05:27:44;98300.38;;;15.67
24201;BMP280;2801;50.972;7.856;2023-10-08T05:30:25;98313.09;;;15.66
24201;BMP280;2801;50.972;7.856;2023-10-08T05:32:58;98310.81;;;15.68
24201;BMP280;2801;50.972;7.856;2023-10-08T05:35:45;98308.09;;;15.68
24201;BMP280;2801;50.972;7.856;2023-10-08T05:38:15;98309.25;;;15.67
24201;BMP280;2801;50.972;7.856;2023-10-08T05:41:02;98306.22;;;15.69
24201;BMP280;2801;50.972;7.856;2023-10-08T05:43:35;98317.03;;;15.69
24201;BMP280;2801;50.972;7.856;2023-10-08T05:46:13;98330.69;;;15.72
24201;BMP280;2801;50.972;7.856;2023-10-08T05:48:57;98333.81;;;15.74
24201;BMP280;2801;50.972;7.856;2023-10-08T05:51:35;98341.25;;;15.77
24201;BMP280;2801;50.972;7.856;2023-10-08T05:54:26;98347.09;;;15.79
24201;BMP280;2801;50.972;7.856;2023-10-08T05:56:55;98361.53;;;15.83
24201;BMP280;2801;50.972;7.856;2023-10-08T05:59:43;98382.06;;;15.84
24201;BMP280;2801;50.972;7.856;2023-10-08T06:02:28;98380.59;;;15.87
24201;BMP280;2801;50.972;7.856;2023-10-08T06:05:15;98370.59;;;15.87
24201;BMP280;2801;50.972;7.856;2023-10-08T06:07:48;98366.75;;;15.88
24201;BMP280;2801;50.972;7.856;2023-10-08T06:10:27;98361.00;;;15.90
24201;BMP280;2801;50.972;7.856;2023-10-08T06:13:06;98345.13;;;15.88
24201;BMP280;2801;50.972;7.856;2023-10-08T06:15:44;98335.19;;;15.92
24201;BMP280;2801;50.972;7.856;2023-10-08T06:18:20;98366.53;;;15.93
24201;BMP280;2801;50.972;7.856;2023-10-08T06:21:03;98358.06;;;15.95
24201;BMP280;2801;50.972;7.856;2023-10-08T06:23:40;98346.94;;;15.96
24201;BMP280;2801;50.972;7.856;2023-10-08T06:26:09;98348.50;;;15.97
24201;BMP280;2801;50.972;7.856;2023-10-08T06:28:38;98348.50;;;15.97
24201;BMP280;2801;50.972;7.856;2023-10-08T06:31:06;98338.25;;;16.03
24201;BMP280;2801;50.972;7.856;2023-10-08T06:33:39;98325.88;;;16.02
24201;BMP280;2801;50.972;7.856;2023-10-08T06:36:09;98317.41;;;16.03
24201;BMP280;2801;50.972;7.856;2023-10-08T06:38:44;98321.69;;;16.04
24201;BMP280;2801;50.972;7.856;2023-10-08T06:41:16;98332.97;;;16.06
24201;BMP280;2801;50.972;7.856;2023-10-08T06:44:06;98335.31;;;16.08
24201;BMP280;2801;50.972;7.856;2023-10-08T06:46:40;98334.78;;;16.14
24201;BMP280;2801;50.972;7.856;2023-10-08T06:49:08;98364.31;;;16.19
24201;BMP280;2801;50.972;7.856;2023-10-08T06:51:41;98362.16;;;16.25
24201;BMP280;2801;50.972;7.856;2023-10-08T06:54:13;98354.16;;;16.28
24201;BMP280;2801;50.972;7.856;2023-10-08T06:56:45;98352.00;;;16.34
24201;BMP280;2801;50.972;7.856;2023-10-08T06:59:19;98366.91;;;16.40
24201;BMP280;2801;50.972;7.856;2023-10-08T07:01:50;98358.78;;;16.40
24201;BMP280;2801;50.972;7.856;2023-10-08T07:04:18;98361.28;;;16.45
24201;BMP280;2801;50.972;7.856;2023-10-08T07:06:49;98377.19;;;16.46
24201;BMP280;2801;50.972;7.856;2023-10-08T07:09:18;98372.25;;;16.48
24201;BMP280;2801;50.972;7.856;2023-10-08T07:11:56;98375.38;;;16.50
24201;BMP280;2801;50.972;7.856;2023-10-08T07:14:25;98377.41;;;16.53
24201;BMP280;2801;50.972;7.856;2023-10-08T07:16:59;98389.38;;;16.52
24201;BMP280;2801;50.972;7.856;2023-10-08T07:19:30;98379.44;;;16.56
24201;BMP280;2801;50.972;7.856;2023-10-08T07:22:09;98366.81;;;16.60
24201;BMP280;2801;50.972;7.856;2023-10-08T07:24:48;98375.84;;;16.64
24201;BMP280;2801;50.972;7.856;2023-10-08T07:27:21;98366.38;;;16.70
24201;BMP280;2801;50.972;7.856;2023-10-08T07:29:50;98366.38;;;16.70
24201;BMP280;2801;50.972;7.856;2023-10-08T07:32:22;98377.38;;;16.77
24201;BMP280;2801;50.972;7.856;2023-10-08T07:34:52;98377.94;;;16.83
24201;BMP280;2801;50.972;7.856;2023-10-08T07:37:24;98388.78;;;16.83
24201;BMP280;2801;50.972;7.856;2023-10-08T07:39:53;98402.88;;;16.88
24201;BMP280;2801;50.972;7.856;2023-10-08T07:42:22;98410.56;;;16.86
24201;BMP280;2801;50.972;7.856;2023-10-08T07:44:49;98428.72;;;16.86
24201;BMP280;2801;50.972;7.856;2023-10-08T07:47:21;98428.38;;;16.87
24201;BMP280;2801;50.972;7.856;2023-10-08T07:49:48;98418.69;;;16.86
24201;BMP280;2801;50.972;7.856;2023-10-08T07:52:17;98405.25;;;16.90
24201;BMP280;2801;50.972;7.856;2023-10-08T07:54:44;98401.06;;;16.92
24201;BMP280;2801;50.972;7.856;2023-10-08T07:57:11;98417.09;;;16.97
24201;BMP280;2801;50.972;7.856;2023-10-08T07:59:42;98420.03;;;17.04
24201;BMP280;2801;50.972;7.856;2023-10-08T08:02:12;98425.78;;;17.03
24201;BMP280;2801;50.972;7.856;2023-10-08T08:04:41;98428.16;;;17.04
24201;BMP280;2801;50.972;7.856;2023-10-08T08:07:10;98437.06;;;17.05
24201;BMP280;2801;50.972;7.856;2023-10-08T08:09:49;98433.44;;;17.01
24201;BMP280;2801;50.972;7.856;2023-10-08T08:12:27;98435.72;;;16.99
24201;BMP280;2801;50.972;7.856;2023-10-08T08:15:00;98440.69;;;16.97
24201;BMP280;2801;50.972;7.856;2023-10-08T08:17:30;98423.75;;;17.00
24201;BMP280;2801;50.972;7.856;2023-10-08T08:19:58;98416.19;;;17.05
24201;BMP280;2801;50.972;7.856;2023-10-08T08:22:25;98415.16;;;17.10
24201;BMP280;2801;50.972;7.856;2023-10-08T08:24:58;98414.66;;;17.20
24201;BMP280;2801;50.972;7.856;2023-10-08T08:27:43;98405.50;;;17.24
24201;BMP280;2801;50.972;7.856;2023-10-08T08:30:16;98417.72;;;17.30
24201;BMP280;2801;50.972;7.856;2023-10-08T08:32:46;98419.81;;;17.37
24201;BMP280;2801;50.972;7.856;2023-10-08T08:35:19;98420.16;;;17.47
24201;BMP280;2801;50.972;7.856;2023-10-08T08:37:47;98420.91;;;17.60
24201;BMP280;2801;50.972;7.856;2023-10-08T08:40:19;98417.78;;;17.73
24201;BMP280;2801;50.972;7.856;2023-10-08T08:42:50;98413.00;;;17.82
24201;BMP280;2801;50.972;7.856;2023-10-08T08:45:21;98410.66;;;17.96
24201;BMP280;2801;50.972;7.856;2023-10-08T08:47:49;98423.28;;;18.04
24201;BMP280;2801;50.972;7.856;2023-10-08T08:50:17;98411.38;;;18.09
24201;BMP280;2801;50.972;7.856;2023-10-08T08:52:45;98415.78;;;18.13
24201;BMP280;2801;50.972;7.856;2023-10-08T08:55:13;98418.22;;;18.18
24201;BMP280;2801;50.972;7.856;2023-10-08T08:57:51;98417.59;;;18.25
24201;BMP280;2801;50.972;7.856;2023-10-08T09:00:24;98415.50;;;18.18
24201;BMP280;2801;50.972;7.856;2023-10-08T09:02:55;98433.00;;;18.21
24201;BMP280;2801;50.972;7.856;2023-10-08T09:05:22;98437.28;;;18.22
24201;BMP280;2801;50.972;7.856;2023-10-08T09:08:01;98426.78;;;18.20
24201;BMP280;2801;50.972;7.856;2023-10-08T09:10:38;98415.56;;;18.22
24201;BMP280;2801;50.972;7.856;2023-10-08T09:13:21;98413.75;;;18.26
24201;BMP280;2801;50.972;7.856;2023-10-08T09:15:52;98422.94;;;18.22
24201;BMP280;2801;50.972;7.856;2023-10-08T09:18:25;98417.19;;;18.23
24201;BMP280;2801;50.972;7.856;2023-10-08T09:20:55;98429.25;;;18.26
24201;BMP280;2801;50.972;7.856;2023-10-08T09:23:24;98427.66;;;18.24
24201;BMP280;2801;50.972;7.856;2023-10-08T09:25:53;98428.72;;;18.20
24201;BMP280;2801;50.972;7.856;2023-10-08T09:28:31;98423.19;;;18.16
24201;BMP280;2801;50.972;7.856;2023-10-08T09:31:03;98428.63;;;18.16
24201;BMP280;2801;50.972;7.856;2023-10-08T09:33:32;98438.78;;;18.19
24201;BMP280;2801;50.972;7.856;2023-10-08T09:35:59;98444.66;;;18.22
24201;BMP280;2801;50.972;7.856;2023-10-08T09:38:29;98443.78;;;18.33
24201;BMP280;2801;50.972;7.856;2023-10-08T09:40:59;98445.22;;;18.43
24201;BMP280;2801;50.972;7.856;2023-10-08T09:43:30;98457.41;;;18.49
24201;BMP280;2801;50.972;7.856;2023-10-08T09:46:16;98467.94;;;18.50
24201;BMP280;2801;50.972;7.856;2023-10-08T09:49:00;98476.69;;;18.44
24201;BMP280;2801;50.972;7.856;2023-10-08T09:51:32;98477.03;;;18.42
24201;BMP280;2801;50.972;7.856;2023-10-08T09:54:22;98480.78;;;18.38
24201;BMP280;2801;50.972;7.856;2023-10-08T09:56:53;98483.94;;;18.40
24201;BMP280;2801;50.972;7.856;2023-10-08T09:59:21;98472.28;;;18.39
24201;BMP280;2801;50.972;7.856;2023-10-08T10:01:50;98489.47;;;18.43
24201;BMP280;2801;50.972;7.856;2023-10-08T10:04:23;98494.19;;;18.46
24201;BMP280;2801;50.972;7.856;2023-10-08T10:07:14;98489.13;;;18.45
24201;BMP280;2801;50.972;7.856;2023-10-08T10:09:45;98503.13;;;18.47
24201;BMP280;2801;50.972;7.856;2023-10-08T10:12:20;98496.19;;;18.49
24201;BMP280;2801;50.972;7.856;2023-10-08T10:14:56;98502.53;;;18.53
24201;BMP280;2801;50.972;7.856;2023-10-08T10:17:28;98508.91;;;18.61
24201;BMP280;2801;50.972;7.856;2023-10-08T10:20:11;98504.81;;;18.67
24201;BMP280;2801;50.972;7.856;2023-10-08T10:22:43;98511.13;;;18.71
24201;BMP280;2801;50.972;7.856;2023-10-08T10:25:15;98513.50;;;18.72
24201;BMP280;2801;50.972;7.856;2023-10-08T10:30:25;98507.06;;;18.96
24201;BMP280;2801;50.972;7.856;2023-10-08T10:32:55;98494.09;;;19.05
24201;BMP280;2801;50.972;7.856;2023-10-08T10:35:24;98503.19;;;19.12
24201;BMP280;2801;50.972;7.856;2023-10-08T10:37:51;98500.63;;;19.19
24201;BMP280;2801;50.972;7.856;2023-10-08T10:40:23;98496.41;;;19.22
24201;BMP280;2801;50.972;7.856;2023-10-08T10:42:58;98497.75;;;19.28
24201;BMP280;2801;50.972;7.856;2023-10-08T10:45:30;98493.19;;;19.32
24201;BMP280;2801;50.972;7.856;2023-10-08T10:48:04;98496.44;;;19.37
24201;BMP280;2801;50.972;7.856;2023-10-08T10:50:48;98499.66;;;19.43
24201;BMP280;2801;50.972;7.856;2023-10-08T10:53:39;98494.63;;;19.45
24201;BMP280;2801;50.972;7.856;2023-10-08T10:56:24;98473.88;;;19.56
24201;BMP280;2801;50.972;7.856;2023-10-08T10:59:02;98476.59;;;19.56
24201;BMP280;2801;50.972;7.856;2023-10-08T11:01:46;98480.28;;;19.63
24201;BMP280;2801;50.972;7.856;2023-10-08T11:04:15;98474.19;;;19.70
24201;BMP280;2801;50.972;7.856;2023-10-08T11:06:50;98477.28;;;19.68
24201;BMP280;2801;50.972;7.856;2023-10-08T11:09:17;98473.19;;;19.78
24201;BMP280;2801;50.972;7.856;2023-10-08T11:12:03;98474.13;;;19.85
24201;BMP280;2801;50.972;7.856;2023-10-08T11:14:42;98472.25;;;19.89
24201;BMP280;2801;50.972;7.856;2023-10-08T11:17:24;98483.22;;;19.93
24201;BMP280;2801;50.972;7.856;2023-10-08T11:19:52;98488.06;;;20.03
24201;BMP280;2801;50.972;7.856;2023-10-08T11:22:19;98483.91;;;20.09
24201;BMP280;2801;50.972;7.856;2023-10-08T11:24:49;98483.66;;;20.14
24201;BMP280;2801;50.972;7.856;2023-10-08T11:27:21;98487.50;;;20.13
24201;BMP280;2801;50.972;7.856;2023-10-08T11:30:03;98487.78;;;20.08
24201;BMP280;2801;50.972;7.856;2023-10-08T11:32:38;98481.94;;;20.06
24201;BMP280;2801;50.972;7.856;2023-10-08T11:35:15;98480.75;;;20.07
24201;BMP280;2801;50.972;7.856;2023-10-08T11:37:47;98487.28;;;20.02
24201;BMP280;2801;50.972;7.856;2023-10-08T11:40:26;98482.13;;;19.97
24201;BMP280;2801;50.972;7.856;2023-10-08T11:42:58;98482.41;;;19.92
24201;BMP280;2801;50.972;7.856;2023-10-08T11:45:30;98472.31;;;19.93
24201;BMP280;2801;50.972;7.856;2023-10-08T11:48:06;98474.31;;;19.96
24201;BMP280;2801;50.972;7.856;2023-10-08T11:50:39;98473.53;;;19.95
24201;BMP280;2801;50.972;7.856;2023-10-08T11:53:07;98463.81;;;19.94
24201;BMP280;2801;50.972;7.856;2023-10-08T11:55:36;98466.88;;;19.93
24201;BMP280;2801;50.972;7.856;2023-10-08T11:58:06;98462.38;;;20.00
24201;BMP280;2801;50.972;7.856;2023-10-08T12:00:45;98466.66;;;20.01
24201;BMP280;2801;50.972;7.856;2023-10-08T12:03:14;98453.53;;;20.07
24201;BMP280;2801;50.972;7.856;2023-10-08T12:05:48;98460.66;;;20.11
24201;BMP280;2801;50.972;7.856;2023-10-08T12:08:19;98455.47;;;20.06
24201;BMP280;2801;50.972;7.856;2023-10-08T12:10:49;98456.69;;;20.09
24201;BMP280;2801;50.972;7.856;2023-10-08T12:13:21;98453.72;;;20.14
24201;BMP280;2801;50.972;7.856;2023-10-08T12:15:55;98452.97;;;20.17
24201;BMP280;2801;50.972;7.856;2023-10-08T12:18:41;98457.50;;;20.32
24201;BMP280;2801;50.972;7.856;2023-10-08T12:21:10;98448.63;;;20.35
24201;BMP280;2801;50.972;7.856;2023-10-08T12:23:38;98453.03;;;20.43
24201;BMP280;2801;50.972;7.856;2023-10-08T12:26:05;98452.75;;;20.48
24201;BMP280;2801;50.972;7.856;2023-10-08T12:28:36;98450.16;;;20.55
24201;BMP280;2801;50.972;7.856;2023-10-08T12:31:03;98445.63;;;20.66
24201;BMP280;2801;50.972;7.856;2023-10-08T12:33:33;98439.22;;;20.77
24201;BMP280;2801;50.972;7.856;2023-10-08T12:36:01;98430.78;;;20.86
24201;BMP280;2801;50.972;7.856;2023-10-08T12:38:42;98426.06;;;20.83
24201;BMP280;2801;50.972;7.856;2023-10-08T12:41:12;98420.25;;;20.84
24201;BMP280;2801;50.972;7.856;2023-10-08T12:43:44;98428.25;;;20.96
24201;BMP280;2801;50.972;7.856;2023-10-08T12:46:13;98430.00;;;21.08
24201;BMP280;2801;50.972;7.856;2023-10-08T12:48:46;98427.44;;;21.22
24201;BMP280;2801;50.972;7.856;2023-10-08T12:51:15;98427.25;;;21.37
24201;BMP280;2801;50.972;7.856;2023-10-08T12:53:43;98424.03;;;21.28
24201;BMP280;2801;50.972;7.856;2023-10-08T12:56:17;98423.59;;;21.26
24201;BMP280;2801;50.972;7.856;2023-10-08T12:58:48;98428.28;;;21.26
24201;BMP280;2801;50.972;7.856;2023-10-08T13:01:18;98429.09;;;21.30
24201;BMP280;2801;50.972;7.856;2023-10-08T13:03:46;98429.88;;;21.27
24201;BMP280;2801;50.972;7.856;2023-10-08T13:06:19;98423.66;;;21.30
24201;BMP280;2801;50.972;7.856;2023-10-08T13:08:59;98420.25;;;21.36
24201;BMP280;2801;50.972;7.856;2023-10-08T13:11:27;98419.19;;;21.44
24201;BMP280;2801;50.972;7.856;2023-10-08T13:13:57;98424.88;;;21.32
24201;BMP280;2801;50.972;7.856;2023-10-08T13:16:27;98435.63;;;21.22
24201;BMP280;2801;50.972;7.856;2023-10-08T13:18:59;98428.50;;;21.14
24201;BMP280;2801;50.972;7.856;2023-10-08T13:21:26;98443.19;;;21.06
24201;BMP280;2801;50.972;7.856;2023-10-08T13:23:55;98432.13;;;20.95
24201;BMP280;2801;50.972;7.856;2023-10-08T13:26:24;98424.91;;;20.84
24201;BMP280;2801;50.972;7.856;2023-10-08T13:28:53;98425.22;;;20.79
24201;BMP280;2801;50.972;7.856;2023-10-08T13:31:21;98420.88;;;20.74
24201;BMP280;2801;50.972;7.856;2023-10-08T13:33:48;98407.59;;;20.73
24201;BMP280;2801;50.972;7.856;2023-10-08T13:36:16;98410.34;;;20.73
24201;BMP280;2801;50.972;7.856;2023-10-08T13:38:45;98395.97;;;20.76
24201;BMP280;2801;50.972;7.856;2023-10-08T13:41:14;98390.16;;;20.77
24201;BMP280;2801;50.972;7.856;2023-10-08T13:43:49;98397.19;;;20.78
24201;BMP280;2801;50.972;7.856;2023-10-08T13:46:20;98391.31;;;20.76
24201;BMP280;2801;50.972;7.856;2023-10-08T13:48:50;98396.41;;;20.78
24201;BMP280;2801;50.972;7.856;2023-10-08T13:51:22;98396.31;;;20.71
24201;BMP280;2801;50.972;7.856;2023-10-08T13:53:55;98386.56;;;20.70
24201;BMP280;2801;50.972;7.856;2023-10-08T13:56:30;98389.28;;;20.70
24201;BMP280;2801;50.972;7.856;2023-10-08T13:59:00;98380.19;;;20.62
24201;BMP280;2801;50.972;7.856;2023-10-08T14:01:41;98384.00;;;20.58
24201;BMP280;2801;50.972;7.856;2023-10-08T14:04:19;98388.69;;;20.57
24201;BMP280;2801;50.972;7.856;2023-10-08T14:06:48;98389.78;;;20.53
24201;BMP280;2801;50.972;7.856;2023-10-08T14:09:21;98377.25;;;20.48
24201;BMP280;2801;50.972;7.856;2023-10-08T14:12:08;98384.22;;;20.46
24201;BMP280;2801;50.972;7.856;2023-10-08T14:14:37;98386.53;;;20.44
24201;BMP280;2801;50.972;7.856;2023-10-08T14:17:08;98369.75;;;20.42
24201;BMP280;2801;50.972;7.856;2023-10-08T14:19:38;98348.66;;;20.35
24201;BMP280;2801;50.972;7.856;2023-10-08T14:22:19;98360.34;;;20.36
24201;BMP280;2801;50.972;7.856;2023-10-08T14:24:49;98361.19;;;20.40
24201;BMP280;2801;50.972;7.856;2023-10-08T14:27:27;98353.09;;;20.47
24201;BMP280;2801;50.972;7.856;2023-10-08T14:30:00;98358.25;;;20.52
24201;BMP280;2801;50.972;7.856;2023-10-08T14:32:33;98358.72;;;20.57
24201;BMP280;2801;50.972;7.856;2023-10-08T14:35:00;98361.13;;;20.62
24201;BMP280;2801;50.972;7.856;2023-10-08T14:37:46;98370.88;;;20.63
24201;BMP280;2801;50.972;7.856;2023-10-08T14:40:31;98367.38;;;20.63
24201;BMP280;2801;50.972;7.856;2023-10-08T14:43:17;98354.84;;;20.58
24201;BMP280;2801;50.972;7.856;2023-10-08T14:45:47;98361.84;;;20.59
24201;BMP280;2801;50.972;7.856;2023-10-08T14:48:14;98351.78;;;20.63
24201;BMP280;2801;50.972;7.856;2023-10-08T14:50:41;98350.09;;;20.52
24201;BMP280;2801;50.972;7.856;2023-10-08T14:53:09;98359.81;;;20.53
24201;BMP280;2801;50.972;7.856;2023-10-08T14:55:36;98354.38;;;20.53
24201;BMP280;2801;50.972;7.856;2023-10-08T14:58:07;98358.25;;;20.52
24201;BMP280;2801;50.972;7.856;2023-10-08T15:00:36;98369.09;;;20.48